Time;durP1;ratioP1;P1;durP2;ratioP2;P2;SDS_P1;SDS_P2;PMS_P1;PMS_P2;Temp;Humidity;BMP_temperature;BMP_pressure;BME280_temperature;BME280_humidity;BME280_pressure;Samples;Min_cycle;Max_cycle;Signal;HPM_P1;HPM_P2
2022/06/19 00:00:56;;;;;;;;;;;;;;;-147.11;100.00;61570.13;4996945;28;20480;-53
2022/06/19 00:03:33;;;;;;;;;;;;;;;-147.11;100.00;61570.13;5001561;28;19953;-56
2022/06/19 00:05:59;;;;;;;;;;;;;;;-147.11;100.00;61570.13;4999352;28;19918;-55
2022/06/19 00:08:25;;;;;;;;;;;;;;;-147.11;100.00;61570.13;4994143;28;19997;-56
2022/06/19 00:10:50;;;;;;;;;;;;;;;-147.11;100.00;61570.13;5001172;28;19956;-58
2022/06/19 00:13:16;;;;;;;;;;;;;;;-147.11;100.00;61570.13;4995073;28;19956;-57
2022/06/19 00:15:41;;;;;;;;;;;;;;;-147.11;100.00;61570.13;5000185;28;20381;-57
2022/06/19 00:18:07;;;;;;;;;;;;;;;-147.11;100.00;61570.13;4996779;28;19926;-57
2022/06/19 00:20:32;;;;;;;;;;;;;;;-147.11;100.00;61570.13;5003969;28;19918;-54
2022/06/19 00:22:57;;;;;;;;;;;;;;;-147.11;100.00;61570.13;4998921;28;19929;-56
2022/06/19 00:25:23;;;;;;;;;;;;;;;-147.11;100.00;61570.13;4997680;28;19922;-58
2022/06/19 00:27:48;;;;;;;;;;;;;;;-147.11;100.00;61570.13;4998523;28;20036;-54
2022/06/19 00:30:14;;;;;;;;;;;;;;;-147.11;100.00;61570.13;4996225;28;20367;-54
2022/06/19 00:32:39;;;;;;;;;;;;;;;-147.11;100.00;61570.13;4997134;28;19925;-53
2022/06/19 00:35:05;;;;;;;;;;;;;;;-147.11;100.00;61570.13;4999804;28;20285;-56
2022/06/19 00:37:31;;;;;;;;;;;;;;;-147.11;100.00;61570.13;5003835;28;20286;-55
2022/06/19 00:39:57;;;;;;;;;;;;;;;-147.11;100.00;61570.13;5000281;28;19996;-52
2022/06/19 00:42:24;;;;;;;;;;;;;;;-147.11;100.00;61570.13;4993495;28;19965;-55
2022/06/19 00:44:50;;;;;;;;;;;;;;;-147.11;100.00;61570.13;4999474;28;20060;-55
2022/06/19 00:47:19;;;;;;;;;;;;;;;-147.11;100.00;61570.13;4994736;28;20396;-54
2022/06/19 00:49:47;;;;;;;;;;;;;;;-147.11;100.00;61570.13;4994752;28;19917;-52
2022/06/19 00:52:16;;;;;;;;;;;;;;;-147.11;100.00;61570.13;5001313;28;19921;-57
2022/06/19 00:55:01;;;;;;;;;;;;;;;-147.11;100.00;61570.13;4995078;28;19922;-58
2022/06/19 00:57:28;;;;;;;;;;;;;;;-147.11;100.00;61570.13;4997046;28;19945;-55
2022/06/19 01:00:01;;;;;;;;;;;;;;;-147.11;100.00;61570.13;4998494;28;20381;-57
2022/06/19 01:02:27;;;;;;;;;;;;;;;-147.11;100.00;61570.13;4997848;28;19972;-55
2022/06/19 01:04:54;;;;;;;;;;;;;;;-147.11;100.00;61570.13;4997007;28;19917;-58
2022/06/19 01:07:22;;;;;;;;;;;;;;;-147.11;100.00;61570.13;4999530;28;19917;-52
2022/06/19 01:09:48;;;;;;;;;;;;;;;-147.11;100.00;61570.13;4995778;28;19973;-56
2022/06/19 01:12:13;;;;;;;;;;;;;;;-147.11;100.00;61570.13;4996497;28;19917;-54
2022/06/19 01:14:40;;;;;;;;;;;;;;;-147.11;100.00;61570.13;4999555;28;19913;-53
2022/06/19 01:17:07;;;;;;;;;;;;;;;-147.11;100.00;61570.13;4994168;28;19918;-54
2022/06/19 01:19:36;;;;;;;;;;;;;;;-147.11;100.00;61570.13;5002521;28;20401;-58
2022/06/19 01:22:13;;;;;;;;;;;;;;;-147.11;100.00;61570.13;5006465;28;20017;-53
2022/06/19 01:24:57;;;;;;;;;;;;;;;-147.11;100.00;61570.13;4998419;28;20096;-54
2022/06/19 01:30:08;;;;;;;;;;;;;;;-147.11;100.00;61570.13;4999612;28;19925;-54
2022/06/19 01:32:35;;;;;;;;;;;;;;;-147.11;100.00;61570.13;4998094;28;19913;-55
2022/06/19 01:35:01;;;;;;;;;;;;;;;-147.11;100.00;61570.13;4997430;28;19940;-56
2022/06/19 01:37:27;;;;;;;;;;;;;;;-147.11;100.00;61570.13;5003044;28;19984;-58
2022/06/19 01:39:56;;;;;;;;;;;;;;;-147.11;100.00;61570.13;4997450;28;20435;-56
2022/06/19 01:42:22;;;;;;;;;;;;;;;-147.11;100.00;61570.13;4991774;28;19922;-57
2022/06/19 01:44:47;;;;;;;;;;;;;;;-147.11;100.00;61570.13;5001294;28;19924;-55
2022/06/19 01:47:14;;;;;;;;;;;;;;;-147.11;100.00;61570.13;4998627;28;19917;-57
2022/06/19 01:49:42;;;;;;;;;;;;;;;-147.11;100.00;61570.13;5003669;28;19918;-54
2022/06/19 01:52:07;;;;;;;;;;;;;;;-147.11;100.00;61570.13;4996023;28;19918;-57
2022/06/19 01:54:37;;;;;;;;;;;;;;;-147.11;100.00;61570.13;5000136;28;19922;-54
2022/06/19 01:57:06;;;;;;;;;;;;;;;-147.11;100.00;61570.13;4994845;28;19914;-55
2022/06/19 01:59:31;;;;;;;;;;;;;;;-147.11;100.00;61570.13;4988710;28;19921;-55
2022/06/19 02:01:58;;;;;;;;;;;;;;;-147.11;100.00;61570.13;4997153;28;19922;-57
2022/06/19 02:04:24;;;;;;;;;;;;;;;-147.11;100.00;61570.13;4984197;28;19936;-51
2022/06/19 02:06:51;;;;;;;;;;;;;;;-147.11;100.00;61570.13;4982725;28;20372;-53
2022/06/19 02:09:19;;;;;;;;;;;;;;;-147.11;100.00;61570.13;4981874;28;19925;-54
2022/06/19 02:11:44;;;;;;;;;;;;;;;-147.11;100.00;61570.13;4984727;28;20312;-53
2022/06/19 02:14:11;;;;;;;;;;;;;;;-147.11;100.00;61570.13;4985120;28;20379;-51
2022/06/19 02:16:40;;;;;;;;;;;;;;;-147.11;100.00;61570.13;4986313;28;19913;-52
2022/06/19 02:19:06;;;;;;;;;;;;;;;-147.11;100.00;61570.13;4986001;28;19926;-53
2022/06/19 02:21:36;;;;;;;;;;;;;;;-147.11;100.00;61570.13;4987713;28;20557;-53
2022/06/19 02:24:01;;;;;;;;;;;;;;;-147.11;100.00;61570.13;4990354;28;19921;-53
2022/06/19 02:26:27;;;;;;;;;;;;;;;-147.11;100.00;61570.13;4982949;28;19929;-53
2022/06/19 02:28:52;;;;;;;;;;;;;;;-147.11;100.00;61570.13;4982270;28;20008;-52
2022/06/19 02:31:20;;;;;;;;;;;;;;;-147.11;100.00;61570.13;4981950;28;20430;-51
2022/06/19 02:33:48;;;;;;;;;;;;;;;-147.11;100.00;61570.13;4988545;28;20400;-52
2022/06/19 02:36:32;;;;;;;;;;;;;;;-147.11;100.00;61570.13;4978194;28;20439;-53
2022/06/19 02:39:00;;;;;;;;;;;;;;;-147.11;100.00;61570.13;4986450;28;20355;-53
2022/06/19 02:41:30;;;;;;;;;;;;;;;-147.11;100.00;61570.13;4979136;28;19922;-52
2022/06/19 02:43:56;;;;;;;;;;;;;;;-147.11;100.00;61570.13;4984514;28;19944;-52
2022/06/19 02:46:21;;;;;;;;;;;;;;;-147.11;100.00;61570.13;4980635;28;19925;-50
2022/06/19 02:48:46;;;;;;;;;;;;;;;-147.11;100.00;61570.13;4989233;28;19917;-51
2022/06/19 02:51:12;;;;;;;;;;;;;;;-147.11;100.00;61570.13;4990247;28;19987;-52
2022/06/19 02:53:37;;;;;;;;;;;;;;;-147.11;100.00;61570.13;4988548;28;19917;-52
2022/06/19 02:56:02;;;;;;;;;;;;;;;-147.11;100.00;61570.13;4983459;28;20432;-51
2022/06/19 02:58:28;;;;;;;;;;;;;;;-147.11;100.00;61570.13;4984265;28;20364;-51
2022/06/19 03:00:53;;;;;;;;;;;;;;;-147.11;100.00;61570.13;4980161;28;20731;-53
2022/06/19 03:03:18;;;;;;;;;;;;;;;-147.11;100.00;61570.13;4986117;28;20321;-52
2022/06/19 03:05:43;;;;;;;;;;;;;;;-147.11;100.00;61570.13;4983489;28;19928;-51
2022/06/19 03:08:09;;;;;;;;;;;;;;;-147.11;100.00;61570.13;4989580;28;20007;-53
2022/06/19 03:10:35;;;;;;;;;;;;;;;-147.11;100.00;61570.13;4985206;28;19928;-53
2022/06/19 03:13:00;;;;;;;;;;;;;;;-147.11;100.00;61570.13;4983705;28;19917;-53
2022/06/19 03:15:26;;;;;;;;;;;;;;;-147.11;100.00;61570.13;4983906;28;19976;-51
2022/06/19 03:17:51;;;;;;;;;;;;;;;-147.11;100.00;61570.13;4985955;28;19940;-51
2022/06/19 03:20:18;;;;;;;;;;;;;;;-147.11;100.00;61570.13;4988606;28;19965;-50
2022/06/19 03:22:43;;;;;;;;;;;;;;;-147.11;100.00;61570.13;4992697;28;20004;-53
2022/06/19 03:25:09;;;;;;;;;;;;;;;-147.11;100.00;61570.13;4992457;28;20000;-54
2022/06/19 03:27:34;;;;;;;;;;;;;;;-147.11;100.00;61570.13;4990461;28;19935;-51
2022/06/19 03:29:59;;;;;;;;;;;;;;;-147.11;100.00;61570.13;4989589;28;19918;-52
2022/06/19 03:32:25;;;;;;;;;;;;;;;-147.11;100.00;61570.13;4991994;28;19917;-53
2022/06/19 03:34:51;;;;;;;;;;;;;;;-147.11;100.00;61570.13;5004099;28;20372;-54
2022/06/19 03:37:16;;;;;;;;;;;;;;;-147.11;100.00;61570.13;4991554;28;19939;-51
2022/06/19 03:39:42;;;;;;;;;;;;;;;-147.11;100.00;61570.13;4987304;28;19914;-53
2022/06/19 03:42:07;;;;;;;;;;;;;;;-147.11;100.00;61570.13;4988296;28;20116;-51
2022/06/19 03:44:33;;;;;;;;;;;;;;;-147.11;100.00;61570.13;4983294;28;20033;-51
2022/06/19 03:46:59;;;;;;;;;;;;;;;-147.11;100.00;61570.13;4986632;28;19976;-52
2022/06/19 03:49:26;;;;;;;;;;;;;;;-147.11;100.00;61570.13;4995622;28;20396;-51
2022/06/19 03:51:51;;;;;;;;;;;;;;;-147.11;100.00;61570.13;4987916;28;19928;-52
2022/06/19 03:54:16;;;;;;;;;;;;;;;-147.11;100.00;61570.13;4989494;28;19926;-51
2022/06/19 03:56:42;;;;;;;;;;;;;;;-147.11;100.00;61570.13;4984204;28;19925;-52
2022/06/19 03:59:09;;;;;;;;;;;;;;;-147.11;100.00;61570.13;4988649;28;19918;-51
2022/06/19 04:01:35;;;;;;;;;;;;;;;-147.11;100.00;61570.13;4984584;28;20048;-52
2022/06/19 04:04:00;;;;;;;;;;;;;;;-147.11;100.00;61570.13;4985457;28;19937;-51
2022/06/19 04:06:27;;;;;;;;;;;;;;;-147.11;100.00;61570.13;4983469;28;19917;-51
2022/06/19 04:08:53;;;;;;;;;;;;;;;-147.11;100.00;61570.13;4992293;28;19983;-51
2022/06/19 04:11:20;;;;;;;;;;;;;;;-147.11;100.00;61570.13;4984773;28;20446;-52
2022/06/19 04:13:45;;;;;;;;;;;;;;;-147.11;100.00;61570.13;4987114;28;19917;-50
2022/06/19 04:16:14;;;;;;;;;;;;;;;-147.11;100.00;61570.13;4982861;28;19979;-51
2022/06/19 04:18:39;;;;;;;;;;;;;;;-147.11;100.00;61570.13;4984601;28;19917;-51
2022/06/19 04:21:05;;;;;;;;;;;;;;;-147.11;100.00;61570.13;4991135;28;20304;-52
2022/06/19 04:23:30;;;;;;;;;;;;;;;-147.11;100.00;61570.13;4991384;28;20077;-51
2022/06/19 04:25:56;;;;;;;;;;;;;;;-147.11;100.00;61570.13;4994948;28;20004;-51
2022/06/19 04:28:24;;;;;;;;;;;;;;;-147.11;100.00;61570.13;4985172;28;20001;-52
2022/06/19 04:30:52;;;;;;;;;;;;;;;-147.11;100.00;61570.13;4985137;28;19914;-51
2022/06/19 04:33:19;;;;;;;;;;;;;;;-147.11;100.00;61570.13;4986635;28;20285;-51
2022/06/19 04:35:45;;;;;;;;;;;;;;;-147.11;100.00;61570.13;4991465;28;19913;-51
2022/06/19 04:38:11;;;;;;;;;;;;;;;-147.11;100.00;61570.13;4987958;28;20032;-51
2022/06/19 04:40:37;;;;;;;;;;;;;;;-147.11;100.00;61570.13;4983277;28;20052;-51
2022/06/19 04:43:02;;;;;;;;;;;;;;;-147.11;100.00;61570.13;4982550;28;19922;-51
2022/06/19 04:45:27;;;;;;;;;;;;;;;-147.11;100.00;61570.13;4991733;28;19920;-54
2022/06/19 04:47:53;;;;;;;;;;;;;;;-147.11;100.00;61570.13;4991227;28;20011;-51
2022/06/19 04:50:18;;;;;;;;;;;;;;;-147.11;100.00;61570.13;4991045;28;19917;-51
2022/06/19 04:52:43;;;;;;;;;;;;;;;-147.11;100.00;61570.13;4992617;28;20381;-51
2022/06/19 04:55:12;;;;;;;;;;;;;;;-147.11;100.00;61570.13;4985150;28;19926;-52
2022/06/19 04:57:38;;;;;;;;;;;;;;;-147.11;100.00;61570.13;4984768;28;19922;-53
2022/06/19 05:00:04;;;;;;;;;;;;;;;-147.11;100.00;61570.13;4984572;28;20835;-51
2022/06/19 05:02:29;;;;;;;;;;;;;;;-147.11;100.00;61570.13;4990457;28;19941;-51
2022/06/19 05:04:54;;;;;;;;;;;;;;;-147.11;100.00;61570.13;4986928;28;19947;-51
2022/06/19 05:07:20;;;;;;;;;;;;;;;-147.11;100.00;61570.13;4999518;28;19909;-51
2022/06/19 05:09:45;;;;;;;;;;;;;;;-147.11;100.00;61570.13;4985218;28;19918;-52
2022/06/19 05:12:10;;;;;;;;;;;;;;;-147.11;100.00;61570.13;4980915;28;19969;-52
2022/06/19 05:14:37;;;;;;;;;;;;;;;-147.11;100.00;61570.13;4974088;28;20468;-53
2022/06/19 05:17:03;;;;;;;;;;;;;;;-147.11;100.00;61570.13;4987254;28;19921;-51
2022/06/19 05:19:28;;;;;;;;;;;;;;;-147.11;100.00;61570.13;4992667;28;19918;-52
2022/06/19 05:21:54;;;;;;;;;;;;;;;-147.11;100.00;61570.13;4983576;28;19922;-52
2022/06/19 05:24:19;;;;;;;;;;;;;;;-147.11;100.00;61570.13;4987873;28;19972;-53
2022/06/19 05:26:44;;;;;;;;;;;;;;;-147.11;100.00;61570.13;4985575;28;20447;-51
2022/06/19 05:29:09;;;;;;;;;;;;;;;-147.11;100.00;61570.13;4988613;28;19918;-52
2022/06/19 05:31:35;;;;;;;;;;;;;;;-147.11;100.00;61570.13;4984882;28;20008;-51
2022/06/19 05:34:00;;;;;;;6.40;3.90;;;;;;;-147.11;100.00;61570.13;4987279;28;19925;-51
2022/06/19 05:36:28;;;;;;;;;;;;;;;-147.11;100.00;61570.13;4991562;28;20428;-52
2022/06/19 05:38:54;;;;;;;;;;;;;;;-147.11;100.00;61570.13;4992416;28;20376;-51
2022/06/19 05:41:19;;;;;;;;;;;;;;;-147.11;100.00;61570.13;4987134;28;19924;-52
2022/06/19 05:43:48;;;;;;;;;;;;;;;-147.11;100.00;61570.13;4988913;28;19926;-52
2022/06/19 05:46:15;;;;;;;;;;;;;;;-147.11;100.00;61570.13;4984752;28;19926;-52
2022/06/19 05:48:41;;;;;;;;;;;;;;;-147.11;100.00;61570.13;4991746;28;19918;-51
2022/06/19 05:51:07;;;;;;;;;;;;;;;-147.11;100.00;61570.13;4987448;28;19928;-51
2022/06/19 05:53:35;;;;;;;;;;;;;;;-147.11;100.00;61570.13;4988885;28;19918;-54
2022/06/19 05:56:01;;;;;;;;;;;;;;;-147.11;100.00;61570.13;4995662;28;19957;-57
2022/06/19 05:58:26;;;;;;;;;;;;;;;-147.11;100.00;61570.13;4990546;28;19929;-52
2022/06/19 06:00:52;;;;;;;;;;;;;;;-147.11;100.00;61570.13;4995303;28;19921;-53
2022/06/19 06:03:18;;;;;;;;;;;;;;;-147.11;100.00;61570.13;4992024;28;19933;-52
2022/06/19 06:05:44;;;;;;;;;;;;;;;-147.11;100.00;61570.13;4995610;28;19976;-57
2022/06/19 06:08:09;;;;;;;;;;;;;;;-147.11;100.00;61570.13;4994684;28;19925;-55
2022/06/19 06:10:35;;;;;;;;;;;;;;;-147.11;100.00;61570.13;4994833;28;19926;-58
2022/06/19 06:13:00;;;;;;;;;;;;;;;-147.11;100.00;61570.13;4997517;28;19922;-53
2022/06/19 06:15:25;;;;;;;;;;;;;;;-147.11;100.00;61570.13;4995673;28;20340;-57
2022/06/19 06:17:51;;;;;;;;;;;;;;;-147.11;100.00;61570.13;5001380;28;20008;-53
2022/06/19 06:20:16;;;;;;;;;;;;;;;-147.11;100.00;61570.13;4993994;28;20008;-52
2022/06/19 06:22:41;;;;;;;;;;;;;;;-147.11;100.00;61570.13;5000378;28;19961;-54
2022/06/19 06:25:07;;;;;;;;;;;;;;;-147.11;100.00;61570.13;4991734;28;19921;-53
2022/06/19 06:27:32;;;;;;;;;;;;;;;-147.11;100.00;61570.13;4998502;28;19936;-56
2022/06/19 06:29:57;;;;;;;;;;;;;;;-147.11;100.00;61570.13;4978087;28;19930;-53
2022/06/19 06:32:23;;;;;;;;;;;;;;;-147.11;100.00;61570.13;4998270;28;19989;-54
2022/06/19 06:34:49;;;;;;;;;;;;;;;-147.11;100.00;61570.13;5007779;28;19921;-55
2022/06/19 06:37:15;;;;;;;;;;;;;;;-147.11;100.00;61570.13;4999066;28;19922;-51
2022/06/19 06:39:40;;;;;;;;;;;;;;;-147.11;100.00;61570.13;4996430;28;20539;-53
2022/06/19 06:42:05;;;;;;;;;;;;;;;-147.11;100.00;61570.13;5002230;28;19969;-56
2022/06/19 06:44:31;;;;;;;;;;;;;;;-147.11;100.00;61570.13;4996267;28;19922;-52
2022/06/19 06:46:56;;;;;;;;;;;;;;;-147.11;100.00;61570.13;4999874;28;20332;-55
2022/06/19 06:49:21;;;;;;;;;;;;;;;-147.11;100.00;61570.13;4988501;28;19929;-54
2022/06/19 06:51:47;;;;;;;;;;;;;;;-147.11;100.00;61570.13;4996593;28;19981;-54
2022/06/19 06:54:12;;;;;;;;;;;;;;;-147.11;100.00;61570.13;5001070;28;20024;-54
2022/06/19 06:56:37;;;;;;;;;;;;;;;-147.11;100.00;61570.13;4982361;28;19954;-53
2022/06/19 06:59:03;;;;;;;;;;;;;;;-147.11;100.00;61570.13;4996158;28;19929;-52
2022/06/19 07:01:29;;;;;;;;;;;;;;;-147.11;100.00;61570.13;5006446;28;19937;-54
2022/06/19 07:03:59;;;;;;;;;;;;;;;-147.11;100.00;61570.13;4996112;28;19922;-53
2022/06/19 07:06:25;;;;;;;;;;;;;;;-147.11;100.00;61570.13;4989436;28;19925;-55
2022/06/19 07:08:51;;;;;;;;;;;;;;;-147.11;100.00;61570.13;4991373;28;19976;-56
2022/06/19 07:11:18;;;;;;;;;;;;;;;-147.11;100.00;61570.13;5002751;28;19922;-57
2022/06/19 07:13:43;;;;;;;;;;;;;;;-147.11;100.00;61570.13;4993522;28;20341;-57
2022/06/19 07:16:08;;;;;;;;;;;;;;;-147.11;100.00;61570.13;4995347;28;19980;-55
2022/06/19 07:18:33;;;;;;;;;;;;;;;-147.11;100.00;61570.13;5002708;28;20012;-55
2022/06/19 07:20:59;;;;;;;;;;;;;;;-147.11;100.00;61570.13;5001278;28;19928;-56
2022/06/19 07:23:24;;;;;;;;;;;;;;;-147.11;100.00;61570.13;4995887;28;19971;-53
2022/06/19 07:25:49;;;;;;;;;;;;;;;-147.11;100.00;61570.13;4999976;28;19917;-54
2022/06/19 07:28:16;;;;;;;;;;;;;;;-147.11;100.00;61570.13;4996078;28;19918;-50
2022/06/19 07:30:42;;;;;;;;;;;;;;;-147.11;100.00;61570.13;4998524;28;19932;-54
2022/06/19 07:33:07;;;;;;;;;;;;;;;-147.11;100.00;61570.13;5000809;28;19972;-54
2022/06/19 07:35:33;;;;;;;;;;;;;;;-147.11;100.00;61570.13;5002767;28;19914;-54
2022/06/19 07:37:58;;;;;;;;;;;;;;;-147.11;100.00;61570.13;5014430;28;19929;-54
2022/06/19 07:40:25;;;;;;;;;;;;;;;-147.11;100.00;61570.13;4997759;28;19944;-56
2022/06/19 07:42:50;;;;;;;;;;;;;;;-147.11;100.00;61570.13;4998826;28;19973;-54
2022/06/19 07:45:16;;;;;;;;;;;;;;;-147.11;100.00;61570.13;4999561;28;19914;-52
2022/06/19 07:50:26;;;;;;;;;;;;;;;-147.11;100.00;61570.13;5002105;28;20308;-54
2022/06/19 07:52:52;;;;;;;;;;;;;;;-147.11;100.00;61570.13;4999659;28;20002;-53
2022/06/19 07:55:23;;;;;;;;;;;;;;;-147.11;100.00;61570.13;4995391;28;19969;-54
2022/06/19 07:57:49;;;;;;;;;;;;;;;-147.11;100.00;61570.13;4999506;28;19918;-54
2022/06/19 08:00:17;;;;;;;;;;;;;;;-147.11;100.00;61570.13;4988036;28;19975;-54
2022/06/19 08:02:48;;;;;;;;;;;;;;;-147.11;100.00;61570.13;4991034;28;19929;-54
2022/06/19 08:05:14;;;;;;;;;;;;;;;-147.11;100.00;61570.13;4986834;28;20423;-50
2022/06/19 08:07:40;;;;;;;;;;;;;;;-147.11;100.00;61570.13;4976684;28;20445;-52
2022/06/19 08:10:06;;;;;;;;;;;;;;;-147.11;100.00;61570.13;4973622;28;19926;-50
2022/06/19 08:12:31;;;;;;;;;;;;;;;-147.11;100.00;61570.13;4970695;28;19921;-50
2022/06/19 08:14:57;;;;;;;;;;;;;;;-147.11;100.00;61570.13;4979517;28;19976;-49
2022/06/19 08:17:22;;;;;;;;;;;;;;;-147.11;100.00;61570.13;4979740;28;19980;-53
2022/06/19 08:19:47;;;;;;;;;;;;;;;-147.11;100.00;61570.13;4983653;28;20048;-50
2022/06/19 08:22:13;;;;;;;;;;;;;;;-147.11;100.00;61570.13;4982588;28;20297;-50
2022/06/19 08:24:38;;;;;;;;;;;;;;;-147.11;100.00;61570.13;4987147;28;20020;-50
2022/06/19 08:27:04;;;;;;;;;;;;;;;-147.11;100.00;61570.13;4981330;28;19925;-50
2022/06/19 08:29:30;;;;;;;;;;;;;;;-147.11;100.00;61570.13;4978667;28;19930;-49
2022/06/19 08:31:55;;;;;;;;;;;;;;;-147.11;100.00;61570.13;4986299;28;19988;-55
2022/06/19 08:34:20;;;;;;;;;;;;;;;-147.11;100.00;61570.13;4974865;28;20374;-53
2022/06/19 08:36:46;;;;;;;;;;;;;;;-147.11;100.00;61570.13;4983146;28;19925;-52
2022/06/19 08:39:14;;;;;;;;;;;;;;;-147.11;100.00;61570.13;4980266;28;20349;-49
2022/06/19 08:41:57;;;;;;;;;;;;;;;-147.11;100.00;61570.13;4984197;28;19918;-49
2022/06/19 08:44:26;;;;;;;;;;;;;;;-147.11;100.00;61570.13;4980266;28;19925;-48
2022/06/19 08:46:54;;;;;;;;;;;;;;;-147.11;100.00;61570.13;4983674;28;19937;-49
2022/06/19 08:49:35;;;;;;;;;;;;;;;-147.11;100.00;61570.13;4981572;28;19918;-48
2022/06/19 08:52:04;;;;;;;;;;;;;;;-147.11;100.00;61570.13;4982133;28;19968;-49
2022/06/19 08:54:34;;;;;;;;;;;;;;;-147.11;100.00;61570.13;4984846;28;19922;-52
2022/06/19 08:57:00;;;;;;;;;;;;;;;-147.11;100.00;61570.13;4984837;28;19980;-48
2022/06/19 08:59:28;;;;;;;;;;;;;;;-147.11;100.00;61570.13;4985062;28;19956;-52
2022/06/19 09:02:05;;;;;;;;;;;;;;;-147.11;100.00;61570.13;4974115;28;19925;-51
2022/06/19 09:07:36;;;;;;;;;;;;;;;-147.11;100.00;61570.13;4981157;28;19980;-49
2022/06/19 09:10:20;;;;;;;;;;;;;;;-147.11;100.00;61570.13;4979035;28;20003;-50
2022/06/19 09:12:48;;;;;;;;;;;;;;;-147.11;100.00;61570.13;4981263;28;20170;-48
2022/06/19 09:15:18;;;;;;;;;;;;;;;-147.11;100.00;61570.13;4976027;28;19925;-51
2022/06/19 09:17:43;;;;;;;;;;;;;;;-147.11;100.00;61570.13;4978515;28;20407;-50
2022/06/19 09:20:20;;;;;;;;;;;;;;;-147.11;100.00;61570.13;4973198;28;19918;-49
2022/06/19 09:22:45;;;;;;;;;;;;;;;-147.11;100.00;61570.13;4956126;28;19925;-49
2022/06/19 09:25:10;;;;;;;;;;;;;;;-147.11;100.00;61570.13;4962069;28;19976;-51
2022/06/19 09:27:51;;;;;;;;;;;;;;;-147.11;100.00;61570.13;4976328;28;19925;-48
2022/06/19 09:30:20;;;;;;;;;;;;;;;-147.11;100.00;61570.13;4976990;28;19929;-51
2022/06/19 09:32:50;;;;;;;;;;;;;;;-147.11;100.00;61570.13;4973752;28;20008;-48
2022/06/19 09:35:19;;;;;;;;;;;;;;;-147.11;100.00;61570.13;4972122;28;20304;-50
2022/06/19 09:37:48;;;;;;;;;;;;;;;-147.11;100.00;61570.13;4975407;28;19921;-53
2022/06/19 09:40:21;;;;;;;;;;;;;;;-147.11;100.00;61570.13;4970716;28;19925;-52
2022/06/19 09:43:10;;;;;;;;;;;;;;;-147.11;100.00;61570.13;4983870;28;19925;-52
2022/06/19 09:45:39;;;;;;;;;;;;;;;-147.11;100.00;61570.13;4975084;28;19971;-50
2022/06/19 09:48:21;;;;;;;;;;;;;;;-147.11;100.00;61570.13;4975550;28;19925;-50
2022/06/19 09:50:49;;;;;;;;;;;;;;;-147.11;100.00;61570.13;4973875;28;20127;-52
2022/06/19 09:53:25;;;;;;;;;;;;;;;-147.11;100.00;61570.13;4971419;28;19973;-53
2022/06/19 09:55:54;;;;;;;;;;;;;;;-147.11;100.00;61570.13;4973715;28;20459;-49
2022/06/19 09:58:25;;;;;;;;;;;;;;;-147.11;100.00;61570.13;4974510;28;19922;-49
2022/06/19 10:00:56;;;;;;;;;;;;;;;-147.11;100.00;61570.13;4976688;28;19926;-53
2022/06/19 10:03:25;;;;;;;;;;;;;;;-147.11;100.00;61570.13;4976519;28;19922;-49
2022/06/19 10:05:57;;;;;;;;;;;;;;;-147.11;100.00;61570.13;4973555;28;20682;-49
2022/06/19 10:08:44;;;;;;;;;;;;;;;-147.11;100.00;61570.13;4975259;28;19948;-53
2022/06/19 10:11:12;;;;;;;;;;;;;;;-147.11;100.00;61570.13;4980630;28;19998;-50
2022/06/19 10:13:43;;;;;;;;;;;;;;;-147.11;100.00;61570.13;4976010;28;19921;-55
2022/06/19 10:16:19;;;;;;;;;;;;;;;-147.11;100.00;61570.13;4973642;28;19933;-51
2022/06/19 10:18:47;;;;;;;;;;;;;;;-147.11;100.00;61570.13;4977736;28;19937;-52
2022/06/19 10:22:13;;;;;;;;;;;;;;;-147.11;100.00;61570.13;4967907;28;19937;-49
2022/06/19 10:24:01;;;;;;;;;;;;;;;-147.11;100.00;61570.13;4973031;28;20499;-50
2022/06/19 10:26:46;;;;;;;18.08;5.32;;;;;;;-147.11;100.00;61570.13;4971139;28;20421;-50
2022/06/19 10:29:54;;;;;;;10.93;5.15;;;;;;;-147.11;100.00;61570.13;4976178;28;20031;-53
2022/06/19 10:32:26;;;;;;;14.45;5.50;;;;;;;-147.11;100.00;61570.13;4959311;28;20129;-51
2022/06/19 10:35:25;;;;;;;20.70;5.60;;;;;;;-147.11;100.00;61570.13;4980164;28;20045;-50
2022/06/19 10:38:11;;;;;;;12.45;5.50;;;;;;;-147.11;100.00;61570.13;4970400;28;20022;-52
2022/06/19 10:41:00;;;;;;;14.43;5.28;;;;;;;-147.11;100.00;61570.13;4969842;28;20026;-49
2022/06/19 10:43:35;;;;;;;12.95;5.82;;;;;;;-147.11;100.00;61570.13;4973605;28;20041;-50
2022/06/19 10:46:06;;;;;;;14.18;6.22;;;;;;;-147.11;100.00;61570.13;4982081;28;20041;-51
2022/06/19 10:48:52;;;;;;;12.35;5.35;;;;;;;-147.11;100.00;61570.13;4978407;28;20041;-49
2022/06/19 10:51:29;;;;;;;13.50;5.13;;;;;;;-147.11;100.00;61570.13;4976753;28;20522;-53
2022/06/19 10:54:00;;;;;;;15.38;5.13;;;;;;;-147.11;100.00;61570.13;4971031;28;20093;-50
2022/06/19 10:56:48;;;;;;;15.55;5.20;;;;;;;-147.11;100.00;61570.13;4971153;28;20041;-48
2022/06/19 10:59:13;;;;;;;11.18;5.10;;;;;;;-147.11;100.00;61570.13;4974807;28;20090;-49
2022/06/19 11:04:37;;;;;;;13.13;5.07;;;;;;;-147.11;100.00;61570.13;4977239;28;20113;-52
2022/06/19 11:07:16;;;;;;;10.05;4.57;;;;;;;-147.11;100.00;61570.13;4982559;28;20030;-50
2022/06/19 11:09:55;;;;;;;14.55;5.72;;;;;;;-147.11;100.00;61570.13;4974221;28;20034;-50
2022/06/19 11:12:34;;;;;;;9.07;5.10;;;;;;;-147.11;100.00;61570.13;4973103;28;20034;-51
2022/06/19 11:15:04;;;;;;;13.52;5.07;;;;;;;-147.11;100.00;61570.13;4981292;28;20030;-50
2022/06/19 11:17:33;;;;;;;14.05;5.22;;;;;;;-147.11;100.00;61570.13;4979296;28;20030;-54
2022/06/19 11:20:17;;;;;;;13.43;5.65;;;;;;;-147.11;100.00;61570.13;4977572;28;20045;-50
2022/06/19 11:22:45;;;;;;;11.68;4.72;;;;;;;-147.11;100.00;61570.13;4976227;28;20038;-50
2022/06/19 11:25:20;;;;;;;15.38;5.38;;;;;;;-147.11;100.00;61570.13;4984045;28;20045;-52
2022/06/19 11:28:09;;;;;;;10.90;4.68;;;;;;;-147.11;100.00;61570.13;4988321;28;20035;-50
2022/06/19 11:30:40;;;;;;;18.58;5.18;;;;;;;-147.11;100.00;61570.13;4989027;28;20125;-53
2022/06/19 11:33:17;;;;;;;11.77;4.72;;;;;;;-147.11;100.00;61570.13;4991577;28;20030;-52
2022/06/19 11:35:58;;;;;;;12.90;5.22;;;;;;;-147.11;100.00;61570.13;4993325;28;20089;-53
2022/06/19 11:38:43;;;;;;;13.95;4.65;;;;;;;-147.11;100.00;61570.13;4988543;28;20026;-51
2022/06/19 11:41:26;;;;;;;12.88;4.70;;;;;;;-147.11;100.00;61570.13;4984845;28;20041;-51
2022/06/19 11:44:17;;;;;;;11.15;4.80;;;;;;;-147.11;100.00;61570.13;4990603;28;20042;-54
2022/06/19 11:46:52;;;;;;;10.77;4.00;;;;;;;-147.11;100.00;61570.13;4983826;28;20293;-51
2022/06/19 11:49:25;;;;;;;10.73;4.53;;;;;;;-147.11;100.00;61570.13;4988623;28;20030;-49
2022/06/19 11:51:51;;;;;;;;;;;;;;;-147.11;100.00;61570.13;4988841;28;20045;-48
2022/06/19 11:54:19;;;;;;;;;;;;;;;-147.11;100.00;61570.13;4994554;28;19922;-52
2022/06/19 11:56:44;;;;;;;;;;;;;;;-147.11;100.00;61570.13;4993928;28;20072;-54
2022/06/19 11:59:23;;;;;;;;;;;;;;;-147.11;100.00;61570.13;4989066;28;20593;-52
2022/06/19 12:01:49;;;;;;;;;;;;;;;-147.11;100.00;61570.13;4987666;28;19953;-52
2022/06/19 12:04:17;;;;;;;;;;;;;;;-147.11;100.00;61570.13;4984031;28;20484;-50
2022/06/19 12:06:49;;;;;;;;;;;;;;;-147.11;100.00;61570.13;4998893;28;20900;-48
2022/06/19 12:09:38;;;;;;;;;;;;;;;-147.11;100.00;61570.13;4985098;28;19980;-52
2022/06/19 12:12:12;;;;;;;;;;;;;;;-147.11;100.00;61570.13;4983092;28;19929;-53
2022/06/19 12:14:58;;;;;;;;;;;;;;;-147.11;100.00;61570.13;4999549;28;20335;-53
2022/06/19 12:17:32;;;;;;;;;;;;;;;-147.11;100.00;61570.13;4990100;28;20081;-49
2022/06/19 12:20:07;;;;;;;;;;;;;;;-147.11;100.00;61570.13;4981642;28;20036;-48
2022/06/19 12:22:32;;;;;;;;;;;;;;;-147.11;100.00;61570.13;4983459;28;19926;-49
2022/06/19 12:25:16;;;;;;;;;;;;;;;-147.11;100.00;61570.13;4984187;28;19961;-48
2022/06/19 12:27:47;;;;;;;;;;;;;;;-147.11;100.00;61570.13;4976987;28;19921;-51